createdAt,value
2019-04-12T00:02:23.144Z,6.35
2019-04-12T00:05:12.111Z,6.37
2019-04-12T00:08:01.178Z,6.35
2019-04-12T00:10:49.785Z,6.30
2019-04-12T00:13:38.399Z,6.30
2019-04-12T00:16:27.056Z,6.40
2019-04-12T00:19:15.274Z,6.39
2019-04-12T00:22:03.474Z,6.31
2019-04-12T00:24:52.006Z,6.22
2019-04-12T00:27:40.430Z,6.25
2019-04-12T00:30:29.366Z,6.21
2019-04-12T00:33:21.950Z,6.18
2019-04-12T00:36:08.874Z,6.13
2019-04-12T00:38:58.431Z,6.12
2019-04-12T00:41:47.788Z,6.18
2019-04-12T00:44:35.950Z,6.18
2019-04-12T00:47:25.425Z,6.19
2019-04-12T00:50:14.342Z,6.16
2019-04-12T00:53:02.811Z,6.20
2019-04-12T00:55:51.074Z,6.10
2019-04-12T00:58:39.300Z,6.10
2019-04-12T01:01:51.073Z,6.08
2019-04-12T01:04:44.068Z,6.06
2019-04-12T01:07:33.234Z,6.01
2019-04-12T01:10:23.241Z,6.06
2019-04-12T01:13:12.026Z,6.05
2019-04-12T01:16:00.645Z,6.00
2019-04-12T01:18:49.030Z,6.02
2019-04-12T01:21:38.159Z,5.96
2019-04-12T01:24:26.796Z,5.95
2019-04-12T01:27:16.941Z,5.98
2019-04-12T01:30:05.491Z,5.93
2019-04-12T01:32:53.676Z,5.92
2019-04-12T01:35:41.914Z,5.87
2019-04-12T01:38:30.155Z,5.89
2019-04-12T01:41:18.912Z,5.88
2019-04-12T01:44:07.199Z,5.84
2019-04-12T01:46:56.129Z,5.81
2019-04-12T01:49:44.455Z,5.82
2019-04-12T01:52:32.825Z,5.83
2019-04-12T01:55:21.276Z,5.84
2019-04-12T01:58:09.497Z,5.81
2019-04-12T02:00:57.730Z,5.81
2019-04-12T02:03:46.041Z,5.75
2019-04-12T02:06:34.205Z,5.72
2019-04-12T02:09:22.763Z,5.74
2019-04-12T02:12:11.648Z,5.72
2019-04-12T02:15:00.394Z,5.66
2019-04-12T02:17:48.626Z,5.63
2019-04-12T02:20:37.265Z,5.58
2019-04-12T02:23:25.715Z,5.62
2019-04-12T02:26:13.992Z,5.58
2019-04-12T02:29:02.350Z,5.54
2019-04-12T02:32:09.402Z,5.50
2019-04-12T02:34:58.636Z,5.47
2019-04-12T02:37:47.282Z,5.36
2019-04-12T02:40:36.497Z,5.39
2019-04-12T02:43:25.512Z,5.39
2019-04-12T02:46:13.931Z,5.34
2019-04-12T02:49:09.634Z,5.27
2019-04-12T02:52:18.257Z,5.23
2019-04-12T02:55:19.533Z,5.25
2019-04-12T02:58:16.753Z,5.21
2019-04-12T03:01:08.038Z,5.18
2019-04-12T03:03:56.884Z,5.19
2019-04-12T03:06:45.546Z,5.29
2019-04-12T03:09:34.228Z,5.18
2019-04-12T03:12:23.367Z,5.19
2019-04-12T03:15:11.870Z,5.19
2019-04-12T03:18:00.614Z,5.15
2019-04-12T03:20:48.877Z,5.10
2019-04-12T03:23:37.766Z,5.13
2019-04-12T03:26:26.074Z,5.08
2019-04-12T03:29:15.049Z,5.04
2019-04-12T03:32:04.285Z,4.95
2019-04-12T03:34:52.939Z,4.97
2019-04-12T03:37:41.110Z,5.06
2019-04-12T03:40:29.567Z,4.95
2019-04-12T03:43:17.830Z,4.95
2019-04-12T03:46:06.216Z,4.87
2019-04-12T03:48:54.993Z,4.88
2019-04-12T03:51:43.917Z,4.83
2019-04-12T03:54:32.103Z,4.84
2019-04-12T03:57:20.840Z,4.81
2019-04-12T04:00:11.063Z,4.85
2019-04-12T04:02:59.232Z,4.73
2019-04-12T04:05:47.627Z,4.80
2019-04-12T04:08:36.301Z,4.71
2019-04-12T04:11:24.930Z,4.68
2019-04-12T04:14:13.329Z,4.68
2019-04-12T04:17:12.770Z,4.74
2019-04-12T04:20:20.450Z,4.61
2019-04-12T04:23:22.517Z,4.59
2019-04-12T04:26:35.705Z,4.54
2019-04-12T04:29:43.509Z,4.55
2019-04-12T04:32:45.569Z,4.53
2019-04-12T04:35:34.987Z,4.53
2019-04-12T04:38:26.531Z,4.71
2019-04-12T04:41:13.560Z,4.53
2019-04-12T04:44:02.047Z,4.54
2019-04-12T04:46:50.834Z,4.56
2019-04-12T04:49:39.110Z,4.54
2019-04-12T04:52:27.409Z,4.54
2019-04-12T04:55:15.812Z,4.60
2019-04-12T04:58:04.343Z,4.60
2019-04-12T05:00:53.763Z,4.72
2019-04-12T05:03:42.486Z,4.67
2019-04-12T05:06:31.539Z,4.62
2019-04-12T05:09:20.200Z,4.58
2019-04-12T05:12:08.860Z,4.62
2019-04-12T05:14:58.589Z,4.78
2019-04-12T05:17:46.949Z,4.80
2019-04-12T05:20:35.481Z,4.88
2019-04-12T05:23:24.508Z,4.91
2019-04-12T05:26:12.799Z,4.92
2019-04-12T05:29:01.850Z,4.96
2019-04-12T05:31:50.583Z,5.02
2019-04-12T05:34:39.511Z,5.06
2019-04-12T05:37:28.092Z,5.13
2019-04-12T05:40:16.307Z,5.08
2019-04-12T05:43:04.621Z,5.04
2019-04-12T05:46:03.385Z,5.08
2019-04-12T05:48:57.836Z,5.17
2019-04-12T05:51:46.488Z,5.17
2019-04-12T05:54:35.245Z,5.04
2019-04-12T05:57:24.918Z,5.02
2019-04-12T06:00:23.340Z,4.91
2019-04-12T06:03:11.465Z,4.94
2019-04-12T06:06:01.958Z,4.95
2019-04-12T06:08:49.954Z,4.96
2019-04-12T06:11:38.402Z,4.94
2019-04-12T06:14:26.792Z,4.91
2019-04-12T06:17:15.619Z,4.94
2019-04-12T06:20:21.941Z,5.26
2019-04-12T06:23:10.593Z,5.48
2019-04-12T06:26:10.913Z,5.39
2019-04-12T06:28:59.227Z,5.42
2019-04-12T06:31:47.973Z,5.60
2019-04-12T06:34:36.375Z,5.68
2019-04-12T06:37:24.969Z,5.56
2019-04-12T06:40:13.509Z,5.55
2019-04-12T06:43:01.755Z,5.67
2019-04-12T06:45:50.441Z,5.66
2019-04-12T06:48:39.064Z,5.56
2019-04-12T06:51:27.326Z,5.73
2019-04-12T06:54:15.992Z,5.86
2019-04-12T06:57:29.592Z,6.01
2019-04-12T07:00:36.818Z,5.84
2019-04-12T07:03:56.002Z,5.88
2019-04-12T07:06:34.800Z,6.19
2019-04-12T07:09:23.292Z,6.26
2019-04-12T07:12:11.681Z,6.51
2019-04-12T07:15:00.342Z,6.43
2019-04-12T07:17:49.152Z,6.40
2019-04-12T07:20:37.425Z,6.59
2019-04-12T07:23:26.041Z,6.58
2019-04-12T07:26:14.254Z,6.68
2019-04-12T07:29:03.018Z,6.78
2019-04-12T07:31:51.568Z,7.03
2019-04-12T07:34:40.077Z,6.95
2019-04-12T07:37:28.408Z,6.79
2019-04-12T07:40:17.036Z,6.83
2019-04-12T07:43:05.491Z,6.89
2019-04-12T07:45:54.405Z,7.08
2019-04-12T07:48:42.590Z,7.08
2019-04-12T07:51:48.488Z,7.07
2019-04-12T07:54:45.700Z,7.29
2019-04-12T07:57:59.352Z,7.57
2019-04-12T08:01:05.331Z,7.32
2019-04-12T08:04:21.924Z,7.66
2019-04-12T08:07:41.443Z,7.48
2019-04-12T08:10:29.899Z,7.64
2019-04-12T08:13:18.381Z,7.80
2019-04-12T08:16:06.616Z,7.90
2019-04-12T08:18:54.938Z,7.75
2019-04-12T08:21:43.040Z,7.84
2019-04-12T08:24:31.412Z,7.95
2019-04-12T08:27:19.471Z,8.09
2019-04-12T08:30:10.016Z,7.74
2019-04-12T08:32:58.057Z,7.86
2019-04-12T08:35:46.384Z,7.81
2019-04-12T08:38:35.157Z,7.80
2019-04-12T08:41:23.531Z,7.70
2019-04-12T08:44:11.709Z,7.85
2019-04-12T08:47:00.101Z,7.91
2019-04-12T08:49:49.635Z,8.15
2019-04-12T08:52:38.171Z,8.33
2019-04-12T08:55:26.627Z,8.61
2019-04-12T08:58:15.127Z,8.71
2019-04-12T09:01:03.733Z,9.01
2019-04-12T09:03:52.152Z,9.03
2019-04-12T09:06:40.668Z,8.78
2019-04-12T09:09:29.273Z,8.51
2019-04-12T09:12:17.833Z,8.78
2019-04-12T09:15:06.366Z,8.96
2019-04-12T09:17:55.369Z,8.65
2019-04-12T09:21:01.340Z,8.61
2019-04-12T09:23:58.329Z,8.87
2019-04-12T09:26:46.808Z,9.08
2019-04-12T09:29:35.538Z,8.85
2019-04-12T09:32:23.809Z,9.11
2019-04-12T09:35:12.643Z,9.27
2019-04-12T09:38:01.124Z,8.91
2019-04-12T09:40:49.730Z,9.02
2019-04-12T09:43:38.248Z,9.13
2019-04-12T09:46:26.993Z,9.26
2019-04-12T09:49:15.160Z,9.67
2019-04-12T09:52:03.448Z,10.06
2019-04-12T09:54:51.763Z,10.17
2019-04-12T09:57:40.005Z,10.26
2019-04-12T10:00:28.217Z,9.90
2019-04-12T10:03:16.942Z,10.04
2019-04-12T10:06:05.218Z,10.11
2019-04-12T10:08:54.006Z,10.37
2019-04-12T10:11:42.488Z,10.67
2019-04-12T10:14:31.152Z,10.54
2019-04-12T10:17:20.863Z,10.89
2019-04-12T10:20:09.271Z,11.29
2019-04-12T10:22:57.811Z,11.02
2019-04-12T10:25:46.439Z,10.57
2019-04-12T10:28:34.636Z,10.53
2019-04-12T10:31:23.053Z,10.80
2019-04-12T10:34:11.598Z,10.71
2019-04-12T10:37:00.289Z,10.55
2019-04-12T10:39:48.530Z,10.68
2019-04-12T10:42:37.167Z,10.49
2019-04-12T10:45:49.818Z,10.31
2019-04-12T10:49:15.354Z,10.76
2019-04-12T10:52:12.383Z,11.05
2019-04-12T10:55:05.905Z,10.69
2019-04-12T10:57:54.140Z,10.71
2019-04-12T11:00:45.000Z,10.50
2019-04-12T11:03:33.222Z,10.67
2019-04-12T11:06:30.093Z,11.15
2019-04-12T11:09:12.470Z,11.23
2019-04-12T11:12:00.732Z,10.96
2019-04-12T11:14:49.321Z,11.37
2019-04-12T11:17:37.258Z,11.43
2019-04-12T11:20:25.639Z,11.30
2019-04-12T11:23:13.822Z,11.57
2019-04-12T11:26:02.334Z,11.42
2019-04-12T11:28:51.568Z,11.32
2019-04-12T11:31:39.793Z,11.42
2019-04-12T11:34:27.952Z,11.69
2019-04-12T11:37:16.450Z,11.87
2019-04-12T11:40:06.030Z,11.99
2019-04-12T11:42:54.272Z,11.71
2019-04-12T11:45:46.048Z,11.96
2019-04-12T11:48:32.908Z,11.96
2019-04-12T11:51:21.109Z,11.58
2019-04-12T11:54:09.712Z,11.43
2019-04-12T11:56:58.790Z,11.78
2019-04-12T11:59:47.067Z,12.21
2019-04-12T12:02:52.833Z,12.12
2019-04-12T12:05:52.732Z,12.08
2019-04-12T12:08:59.907Z,11.86
2019-04-12T12:12:03.277Z,11.98
2019-04-12T12:15:13.409Z,12.13
2019-04-12T12:18:04.751Z,12.19
2019-04-12T12:20:53.802Z,11.98
2019-04-12T12:23:41.988Z,12.58
2019-04-12T12:26:30.434Z,12.84
2019-04-12T12:29:19.222Z,13.42
2019-04-12T12:32:07.591Z,13.02
2019-04-12T12:34:56.307Z,12.79
2019-04-12T12:37:44.770Z,13.11
2019-04-12T12:40:33.607Z,13.01
2019-04-12T12:43:22.262Z,12.79
2019-04-12T12:46:10.780Z,12.82
2019-04-12T12:48:59.054Z,12.52
2019-04-12T12:51:47.755Z,12.77
2019-04-12T12:54:36.094Z,12.92
2019-04-12T12:57:24.767Z,12.32
2019-04-12T13:00:13.091Z,12.47
2019-04-12T13:03:01.553Z,12.75
2019-04-12T13:05:50.412Z,13.17
2019-04-12T13:08:38.654Z,12.73
2019-04-12T13:11:27.734Z,12.68
2019-04-12T13:14:16.010Z,12.66
2019-04-12T13:17:04.660Z,12.54
2019-04-12T13:19:53.034Z,12.44
2019-04-12T13:22:41.484Z,13.17
2019-04-12T13:25:30.391Z,13.66
2019-04-12T13:28:19.057Z,13.39
2019-04-12T13:31:32.478Z,13.58
2019-04-12T13:34:33.180Z,13.27
2019-04-12T13:37:39.315Z,12.99
2019-04-12T13:40:34.390Z,12.85
2019-04-12T13:43:22.995Z,12.50
2019-04-12T13:46:12.040Z,12.67
2019-04-12T13:49:00.522Z,13.03
2019-04-12T13:51:49.615Z,13.18
2019-04-12T13:54:38.023Z,12.77
2019-04-12T13:57:26.227Z,12.37
2019-04-12T14:00:19.176Z,12.25
2019-04-12T14:03:06.411Z,12.19
2019-04-12T14:05:54.724Z,11.99
2019-04-12T14:08:43.777Z,11.84
2019-04-12T14:11:32.330Z,12.05
2019-04-12T14:14:20.544Z,12.03
2019-04-12T14:17:09.067Z,11.97
2019-04-12T14:19:57.390Z,11.83
2019-04-12T14:22:45.740Z,11.69
2019-04-12T14:25:34.226Z,11.59
2019-04-12T14:28:29.854Z,11.50
2019-04-12T14:31:19.185Z,11.50
2019-04-12T14:34:33.403Z,11.56
2019-04-12T14:37:40.819Z,11.77
2019-04-12T14:40:42.009Z,12.19
2019-04-12T14:43:44.300Z,12.03
2019-04-12T14:46:37.019Z,11.97
2019-04-12T14:49:25.816Z,12.22
2019-04-12T14:51:57.553Z,11.78
2019-04-12T14:54:30.152Z,11.94
2019-04-12T14:57:00.918Z,12.30
2019-04-12T14:59:33.828Z,12.23
2019-04-12T15:02:06.691Z,12.58
2019-04-12T15:04:37.694Z,13.08
2019-04-12T15:07:08.924Z,13.21
2019-04-12T15:09:40.983Z,12.39
2019-04-12T15:12:14.536Z,11.97
2019-04-12T15:14:44.906Z,12.89
2019-04-12T15:17:16.272Z,13.68
2019-04-12T15:19:47.818Z,13.93
2019-04-12T15:22:18.971Z,13.86
2019-04-12T15:24:50.821Z,14.47
2019-04-12T15:27:21.777Z,15.00
2019-04-12T15:29:52.433Z,14.65
2019-04-12T15:32:24.847Z,15.18
2019-04-12T15:34:55.804Z,14.00
2019-04-12T15:37:28.188Z,14.30
2019-04-12T15:39:58.930Z,14.17
2019-04-12T15:42:32.511Z,14.51
2019-04-12T15:45:04.085Z,14.63
2019-04-12T15:47:37.009Z,14.83
2019-04-12T15:50:07.660Z,13.65
2019-04-12T15:52:40.033Z,12.92
2019-04-12T15:55:13.084Z,12.56
2019-04-12T15:57:46.014Z,12.82
2019-04-12T16:00:42.482Z,12.55
2019-04-12T16:03:13.208Z,12.90
2019-04-12T16:05:44.143Z,12.70
2019-04-12T16:08:15.371Z,13.11
2019-04-12T16:10:53.491Z,13.16
2019-04-12T16:13:42.565Z,12.38
2019-04-12T16:17:09.345Z,12.37
2019-04-12T16:19:41.016Z,13.00
2019-04-12T16:22:13.069Z,12.94
2019-04-12T16:24:46.009Z,12.33
2019-04-12T16:27:19.120Z,12.46
2019-04-12T16:30:13.932Z,12.92
2019-04-12T16:32:56.463Z,12.56
2019-04-12T16:35:45.615Z,12.15
2019-04-12T16:38:19.576Z,11.87
2019-04-12T16:40:50.108Z,11.95
2019-04-12T16:43:21.242Z,12.23
2019-04-12T16:45:53.169Z,11.91
2019-04-12T16:48:25.219Z,11.29
2019-04-12T16:51:13.571Z,11.11
2019-04-12T16:53:43.830Z,10.73
2019-04-12T16:56:16.521Z,10.46
2019-04-12T16:58:48.878Z,10.18
2019-04-12T17:01:21.017Z,9.92
2019-04-12T17:03:53.959Z,9.52
2019-04-12T17:06:25.149Z,9.22
2019-04-12T17:08:56.459Z,9.07
2019-04-12T17:11:27.105Z,9.00
2019-04-12T17:13:59.985Z,8.76
2019-04-12T17:16:31.095Z,8.50
2019-04-12T17:19:03.028Z,8.40
2019-04-12T17:21:34.024Z,8.22
2019-04-12T17:24:04.472Z,8.18
2019-04-12T17:26:37.009Z,8.12
2019-04-12T17:29:09.072Z,7.97
2019-04-12T17:31:48.984Z,7.85
2019-04-12T17:34:16.176Z,7.70
2019-04-12T17:36:47.122Z,7.57
2019-04-12T17:39:19.066Z,7.46
2019-04-12T17:41:52.746Z,7.42
2019-04-12T17:44:24.141Z,7.33
2019-04-12T17:46:55.034Z,7.29
2019-04-12T17:49:47.451Z,7.29
2019-04-12T17:52:34.602Z,7.23
2019-04-12T17:55:26.383Z,7.15
2019-04-12T17:57:56.864Z,7.14
2019-04-12T18:00:50.237Z,7.09
2019-04-12T18:03:21.633Z,6.93
2019-04-12T18:05:53.257Z,6.91
2019-04-12T18:08:24.246Z,6.93
2019-04-12T18:10:56.471Z,6.84
2019-04-12T18:13:27.377Z,6.78
2019-04-12T18:16:00.420Z,6.83
2019-04-12T18:18:31.338Z,6.84
2019-04-12T18:21:03.279Z,6.75
2019-04-12T18:23:35.413Z,6.74
2019-04-12T18:26:06.394Z,6.73
2019-04-12T18:28:39.167Z,6.68
2019-04-12T18:31:12.260Z,6.69
2019-04-12T18:33:44.591Z,6.72
2019-04-12T18:36:15.500Z,6.63
2019-04-12T18:38:47.510Z,6.61
2019-04-12T18:41:18.488Z,6.62
2019-04-12T18:43:51.988Z,6.59
2019-04-12T18:46:25.520Z,6.55
2019-04-12T18:48:57.474Z,6.54
2019-04-12T18:51:30.597Z,6.45
2019-04-12T18:54:03.448Z,6.46
2019-04-12T18:56:34.607Z,6.52
2019-04-12T18:59:06.468Z,6.56
2019-04-12T19:01:38.508Z,6.53
2019-04-12T19:04:09.855Z,6.55
2019-04-12T19:06:41.757Z,6.53
2019-04-12T19:09:14.606Z,6.51
2019-04-12T19:11:47.517Z,6.50
2019-04-12T19:14:20.583Z,6.52
2019-04-12T19:16:53.672Z,6.50
2019-04-12T19:19:24.527Z,6.44
2019-04-12T19:22:06.465Z,6.49
2019-04-12T19:24:37.990Z,6.52
2019-04-12T19:27:08.643Z,6.45
2019-04-12T19:29:40.670Z,6.45
2019-04-12T19:32:39.782Z,6.42
2019-04-12T19:35:49.008Z,6.44
2019-04-12T19:38:42.574Z,6.39
2019-04-12T19:41:16.851Z,6.41
2019-04-12T19:43:47.622Z,6.41
2019-04-12T19:46:19.784Z,6.39
2019-04-12T19:48:50.809Z,6.32
2019-04-12T19:51:21.780Z,6.34
2019-04-12T19:53:54.657Z,6.36
2019-04-12T19:56:25.780Z,6.32
2019-04-12T19:58:57.370Z,6.40
2019-04-12T20:01:27.953Z,6.43
2019-04-12T20:03:59.862Z,6.51
2019-04-12T20:06:30.914Z,6.54
2019-04-12T20:09:04.239Z,6.54
2019-04-12T20:11:35.217Z,6.54
2019-04-12T20:14:05.745Z,6.68
2019-04-12T20:16:36.214Z,6.74
2019-04-12T20:19:06.927Z,6.73
2019-04-12T20:21:37.296Z,6.72
2019-04-12T20:24:08.085Z,6.76
2019-04-12T20:26:38.608Z,6.78
2019-04-12T20:29:09.146Z,6.78
2019-04-12T20:31:39.771Z,6.74
2019-04-12T20:34:10.346Z,6.78
2019-04-12T20:36:40.934Z,6.78
2019-04-12T20:39:11.800Z,6.81
2019-04-12T20:41:43.829Z,6.79
2019-04-12T20:44:26.244Z,6.80
2019-04-12T20:46:49.001Z,6.90
2019-04-12T20:49:20.006Z,6.83
2019-04-12T20:51:52.946Z,6.77
2019-04-12T20:54:24.096Z,6.78
2019-04-12T20:56:56.687Z,6.70
2019-04-12T20:59:28.130Z,6.73
2019-04-12T21:02:00.358Z,6.70
2019-04-12T21:04:31.153Z,6.74
2019-04-12T21:07:02.556Z,6.75
2019-04-12T21:09:33.145Z,6.73
2019-04-12T21:14:34.224Z,6.77
2019-04-12T21:17:04.861Z,6.76
2019-04-12T21:19:35.529Z,6.74
2019-04-12T21:22:06.179Z,6.69
2019-04-12T21:24:36.576Z,6.73
2019-04-12T21:27:07.226Z,6.60
2019-04-12T21:29:37.600Z,6.57
2019-04-12T21:32:08.267Z,6.56
2019-04-12T21:34:38.649Z,6.55
2019-04-12T21:37:09.240Z,6.52
2019-04-12T21:39:39.732Z,6.50
2019-04-12T21:42:10.390Z,6.58
2019-04-12T21:44:40.888Z,6.60
2019-04-12T21:47:11.562Z,6.60
2019-04-12T21:49:41.974Z,6.60
2019-04-12T21:52:12.398Z,6.51
2019-04-12T21:54:43.148Z,6.55
2019-04-12T21:57:13.934Z,6.52
2019-04-12T21:59:44.445Z,6.53
2019-04-12T22:02:15.113Z,6.59
2019-04-12T22:04:46.144Z,6.54
2019-04-12T22:07:16.709Z,6.50
2019-04-12T22:09:49.392Z,6.60
2019-04-12T22:12:20.388Z,6.63
2019-04-12T22:14:52.377Z,6.53
2019-04-12T22:17:24.379Z,6.65
2019-04-12T22:19:55.466Z,6.66
2019-04-12T22:22:28.519Z,6.65
2019-04-12T22:25:00.422Z,6.59
2019-04-12T22:27:32.822Z,6.54
2019-04-12T22:30:04.450Z,6.52
2019-04-12T22:32:34.849Z,6.57
2019-04-12T22:35:06.621Z,6.53
2019-04-12T22:37:38.476Z,6.48
2019-04-12T22:40:09.226Z,6.44
2019-04-12T22:42:39.761Z,6.45
2019-04-12T22:45:10.809Z,6.46
2019-04-12T22:47:43.506Z,6.47
2019-04-12T22:50:14.493Z,6.48
2019-04-12T22:52:45.397Z,6.46
2019-04-12T22:55:21.112Z,6.45
2019-04-12T22:57:52.464Z,6.42
2019-04-12T23:00:23.624Z,6.44
2019-04-12T23:02:56.484Z,6.42
2019-04-12T23:05:31.637Z,6.44
2019-04-12T23:08:03.610Z,6.43
2019-04-12T23:10:37.596Z,6.38
2019-04-12T23:13:07.967Z,6.39
2019-04-12T23:15:40.523Z,6.43
2019-04-12T23:18:11.655Z,6.38
2019-04-12T23:20:44.627Z,6.40
2019-04-12T23:23:15.872Z,6.33
2019-04-12T23:25:51.782Z,6.29
2019-04-12T23:28:22.801Z,6.34
2019-04-12T23:31:01.204Z,6.31
2019-04-12T23:33:39.948Z,6.37
2019-04-12T23:36:12.802Z,6.26
2019-04-12T23:38:43.783Z,6.25
2019-04-12T23:41:16.826Z,6.21
2019-04-12T23:43:47.813Z,6.26
2019-04-12T23:46:20.827Z,6.26
2019-04-12T23:48:51.740Z,6.23
2019-04-12T23:51:23.053Z,6.27
2019-04-12T23:53:55.830Z,6.24
2019-04-12T23:56:26.369Z,6.16
2019-04-12T23:58:56.895Z,6.17
